createdAt,value
2022-09-27T00:00:42.955Z,97819.88
2022-09-27T00:01:27.876Z,97814.44
2022-09-27T00:02:15.027Z,97818.75
2022-09-27T00:03:02.520Z,97824.56
2022-09-27T00:03:46.357Z,97820.25
2022-09-27T00:04:34.479Z,97813.97
2022-09-27T00:05:21.259Z,97815.13
2022-09-27T00:06:06.417Z,97826.50
2022-09-27T00:06:50.976Z,97825.69
2022-09-27T00:07:34.366Z,97818.66
2022-09-27T00:08:22.667Z,97819.78
2022-09-27T00:09:12.619Z,97830.34
2022-09-27T00:09:57.905Z,97826.03
2022-09-27T00:10:42.678Z,97821.38
2022-09-27T00:11:26.985Z,97827.63
2022-09-27T00:12:10.312Z,97824.09
2022-09-27T00:12:54.578Z,97828.78
2022-09-27T00:13:42.655Z,97824.09
2022-09-27T00:14:24.123Z,97832.75
2022-09-27T00:15:08.065Z,97833.53
2022-09-27T00:15:55.331Z,97835.38
2022-09-27T00:16:38.582Z,97832.75
2022-09-27T00:17:22.291Z,97839.78
2022-09-27T00:18:07.562Z,97837.75
2022-09-27T00:18:50.743Z,97843.13
2022-09-27T00:19:32.637Z,97845.84
2022-09-27T00:20:16.077Z,97836.50
2022-09-27T00:20:58.935Z,97838.09
2022-09-27T00:21:44.118Z,97847.09
2022-09-27T00:22:27.320Z,97840.47
2022-09-27T00:23:11.258Z,97844.34
2022-09-27T00:23:55.666Z,97843.22
2022-09-27T00:24:40.604Z,97836.50
2022-09-27T00:25:23.832Z,97844.69
2022-09-27T00:26:08.225Z,97838.91
2022-09-27T00:26:52.510Z,97841.28
2022-09-27T00:27:40.439Z,97850.16
2022-09-27T00:28:24.299Z,97843.22
2022-09-27T00:29:09.210Z,97849.81
2022-09-27T00:29:52.361Z,97842.06
2022-09-27T00:30:36.273Z,97839.78
2022-09-27T00:31:20.523Z,97841.38
2022-09-27T00:32:05.209Z,97847.63
2022-09-27T00:32:54.650Z,97853.00
2022-09-27T00:33:40.038Z,97852.19
2022-09-27T00:34:26.994Z,97850.94
2022-09-27T00:35:10.333Z,97851.41
2022-09-27T00:35:55.965Z,97851.41
2022-09-27T00:36:41.743Z,97853.34
2022-09-27T00:37:28.298Z,97855.63
2022-09-27T00:38:10.541Z,97853.22
2022-09-27T00:38:57.417Z,97852.09
2022-09-27T00:39:40.117Z,97854.94
2022-09-27T00:40:24.422Z,97853.34
2022-09-27T00:41:08.172Z,97852.09
2022-09-27T00:41:53.351Z,97850.59
2022-09-27T00:42:38.579Z,97850.59
2022-09-27T00:43:28.776Z,97859.59
2022-09-27T00:44:13.725Z,97857.31
2022-09-27T00:45:01.533Z,97853.78
2022-09-27T00:45:47.784Z,97858.44
2022-09-27T00:46:33.233Z,97856.84
2022-09-27T00:47:16.431Z,97858.78
2022-09-27T00:48:00.329Z,97861.53
2022-09-27T00:48:46.751Z,97855.28
2022-09-27T00:49:32.815Z,97863.00
2022-09-27T00:50:16.612Z,97858.44
2022-09-27T00:51:01.292Z,97854.47
2022-09-27T00:51:45.752Z,97856.06
2022-09-27T00:52:30.686Z,97866.28
2022-09-27T00:53:18.245Z,97858.09
2022-09-27T00:54:04.860Z,97860.03
2022-09-27T00:54:50.077Z,97862.31
2022-09-27T00:55:34.868Z,97865.50
2022-09-27T00:56:20.467Z,97861.19
2022-09-27T00:57:06.011Z,97862.56
2022-09-27T00:57:50.474Z,97864.59
2022-09-27T00:58:35.639Z,97866.63
2022-09-27T00:59:21.253Z,97859.94
2022-09-27T01:00:08.475Z,97863.47
2022-09-27T01:00:53.952Z,97860.63
2022-09-27T01:01:37.890Z,97870.06
2022-09-27T01:02:22.198Z,97873.13
2022-09-27T01:03:03.114Z,97872.34
2022-09-27T01:03:46.267Z,97872.34
2022-09-27T01:04:30.350Z,97870.84
2022-09-27T01:05:14.067Z,97870.84
2022-09-27T01:05:55.915Z,97872.34
2022-09-27T01:06:42.167Z,97870.06
2022-09-27T01:07:25.443Z,97879.03
2022-09-27T01:08:07.869Z,97877.09
2022-09-27T01:08:51.598Z,97875.53
2022-09-27T01:09:35.637Z,97880.97
2022-09-27T01:10:20.112Z,97882.47
2022-09-27T01:11:02.696Z,97879.03
2022-09-27T01:11:46.754Z,97885.63
2022-09-27T01:12:31.038Z,97875.53
2022-09-27T01:13:13.119Z,97878.25
2022-09-27T01:13:59.243Z,97894.63
2022-09-27T01:14:46.699Z,97885.75
2022-09-27T01:15:30.957Z,97879.03
2022-09-27T01:16:18.432Z,97877.09
2022-09-27T01:17:02.479Z,97881.78
2022-09-27T01:17:44.363Z,97884.75
2022-09-27T01:18:30.984Z,97882.81
2022-09-27T01:19:15.240Z,97884.06
2022-09-27T01:19:58.332Z,97892.59
2022-09-27T01:20:44.780Z,97885.53
2022-09-27T01:21:29.635Z,97888.72
2022-09-27T01:22:14.489Z,97888.38
2022-09-27T01:22:57.030Z,97891.44
2022-09-27T01:23:43.038Z,97887.22
2022-09-27T01:24:26.548Z,97890.06
2022-09-27T01:25:12.042Z,97886.78
2022-09-27T01:25:57.867Z,97888.72
2022-09-27T01:26:43.518Z,97893.72
2022-09-27T01:27:28.345Z,97894.16
2022-09-27T01:28:11.708Z,97887.91
2022-09-27T01:28:58.315Z,97890.66
2022-09-27T01:29:42.220Z,97896.22
2022-09-27T01:30:29.392Z,97897.34
2022-09-27T01:31:14.795Z,97896.66
2022-09-27T01:31:58.337Z,97897.00
2022-09-27T01:32:42.634Z,97893.47
2022-09-27T01:33:24.087Z,97892.34
2022-09-27T01:34:09.327Z,97895.41
2022-09-27T01:34:52.715Z,97903.25
2022-09-27T01:35:36.256Z,97894.63
2022-09-27T01:36:21.160Z,97895.06
2022-09-27T01:37:05.446Z,97891.91
2022-09-27T01:37:49.099Z,97905.09
2022-09-27T01:38:31.919Z,97887.81
2022-09-27T01:39:16.290Z,97898.03
2022-09-27T01:40:01.102Z,97893.72
2022-09-27T01:40:47.164Z,97899.63
2022-09-27T01:41:31.430Z,97894.97
2022-09-27T01:42:21.302Z,97903.94
2022-09-27T01:43:05.034Z,97901.22
2022-09-27T01:43:47.171Z,97898.03
2022-09-27T01:44:33.282Z,97898.16
2022-09-27T01:45:18.751Z,97901.22
2022-09-27T01:46:07.506Z,97898.03
2022-09-27T01:46:55.165Z,97893.47
2022-09-27T01:47:40.659Z,97896.56
2022-09-27T01:48:25.555Z,97897.00
2022-09-27T01:49:07.318Z,97898.94
2022-09-27T01:49:50.054Z,97901.31
2022-09-27T01:50:33.879Z,97895.41
2022-09-27T01:51:17.680Z,97897.69
2022-09-27T01:52:01.281Z,97891.78
2022-09-27T01:52:44.591Z,97896.44
2022-09-27T01:53:29.347Z,97894.16
2022-09-27T01:54:11.769Z,97897.34
2022-09-27T01:54:54.841Z,97898.16
2022-09-27T01:55:38.552Z,97897.34
2022-09-27T01:56:22.607Z,97902.34
2022-09-27T01:57:06.824Z,97900.78
2022-09-27T01:57:51.061Z,97897.34
2022-09-27T01:58:39.710Z,97894.63
2022-09-27T01:59:29.199Z,97892.34
2022-09-27T02:00:13.933Z,97899.75
2022-09-27T02:01:01.460Z,97902.81
2022-09-27T02:01:47.112Z,97900.53
2022-09-27T02:02:31.343Z,97894.63
2022-09-27T02:03:15.708Z,97896.56
2022-09-27T02:03:57.704Z,97895.75
2022-09-27T02:04:41.064Z,97892.25
2022-09-27T02:05:24.683Z,97889.97
2022-09-27T02:06:09.334Z,97901.22
2022-09-27T02:06:52.877Z,97894.16
2022-09-27T02:07:37.529Z,97900.44
2022-09-27T02:08:22.786Z,97897.59
2022-09-27T02:09:06.504Z,97899.63
2022-09-27T02:09:53.752Z,97898.50
2022-09-27T02:10:37.186Z,97901.22
2022-09-27T02:11:21.466Z,97902.03
2022-09-27T02:12:04.889Z,97900.09
2022-09-27T02:12:49.265Z,97902.81
2022-09-27T02:13:36.658Z,97903.59
2022-09-27T02:14:24.672Z,97898.50
2022-09-27T02:15:05.895Z,97902.72
2022-09-27T02:15:51.960Z,97899.19
2022-09-27T02:16:37.910Z,97903.06
2022-09-27T02:17:21.476Z,97906.91
2022-09-27T02:18:07.380Z,97904.63
2022-09-27T02:18:51.842Z,97906.22
2022-09-27T02:19:39.049Z,97902.81
2022-09-27T02:20:27.555Z,97902.03
2022-09-27T02:21:12.526Z,97901.91
2022-09-27T02:21:57.550Z,97906.22
2022-09-27T02:22:44.584Z,97899.19
2022-09-27T02:23:27.978Z,97904.19
2022-09-27T02:24:13.093Z,97903.50
2022-09-27T02:24:59.726Z,97907.47
2022-09-27T02:25:41.854Z,97903.16
2022-09-27T02:26:27.662Z,97903.59
2022-09-27T02:27:13.397Z,97904.28
2022-09-27T02:28:01.478Z,97903.41
2022-09-27T02:28:49.142Z,97906.91
2022-09-27T02:29:37.064Z,97909.75
2022-09-27T02:30:23.934Z,97899.53
2022-09-27T02:31:15.866Z,97904.19
2022-09-27T02:32:00.900Z,97910.34
2022-09-27T02:32:49.229Z,97906.56
2022-09-27T02:33:33.885Z,97913.28
2022-09-27T02:34:17.545Z,97911.34
2022-09-27T02:35:02.425Z,97911.34
2022-09-27T02:35:46.215Z,97909.75
2022-09-27T02:36:33.741Z,97914.41
2022-09-27T02:37:18.809Z,97906.56
2022-09-27T02:38:02.689Z,97912.13
2022-09-27T02:38:48.292Z,97913.63
2022-09-27T02:39:33.567Z,97914.31
2022-09-27T02:40:19.935Z,97909.66
2022-09-27T02:41:09.667Z,97916.25
2022-09-27T02:41:54.908Z,97918.97
2022-09-27T02:42:40.357Z,97917.03
2022-09-27T02:43:28.180Z,97915.78
2022-09-27T02:44:15.403Z,97917.84
2022-09-27T02:45:00.680Z,97910.91
2022-09-27T02:45:44.063Z,97917.84
2022-09-27T02:46:26.379Z,97924.44
2022-09-27T02:47:10.858Z,97913.16
2022-09-27T02:47:54.632Z,97916.34
2022-09-27T02:48:40.245Z,97920.56
2022-09-27T02:49:26.877Z,97918.19
2022-09-27T02:50:12.369Z,97915.78
2022-09-27T02:50:57.587Z,97917.16
2022-09-27T02:51:38.152Z,97912.38
2022-09-27T02:52:25.558Z,97918.88
2022-09-27T02:53:07.228Z,97911.13
2022-09-27T02:53:53.959Z,97919.78
2022-09-27T02:54:42.324Z,97922.16
2022-09-27T02:55:31.194Z,97922.94
2022-09-27T02:56:16.920Z,97922.03
2022-09-27T02:57:04.287Z,97926.81
2022-09-27T02:57:45.970Z,97925.13
2022-09-27T02:58:31.009Z,97925.91
2022-09-27T02:59:17.217Z,97921.25
2022-09-27T03:00:02.591Z,97922.50
2022-09-27T03:00:45.650Z,97923.63
2022-09-27T03:01:30.331Z,97921.25
2022-09-27T03:02:15.656Z,97920.47
2022-09-27T03:02:57.125Z,97915.09
2022-09-27T03:03:41.358Z,97921.69
2022-09-27T03:04:25.487Z,97921.25
2022-09-27T03:05:08.970Z,97916.94
2022-09-27T03:05:55.256Z,97914.75
2022-09-27T03:06:39.990Z,97926.81
2022-09-27T03:07:24.345Z,97925.69
2022-09-27T03:08:05.235Z,97925.22
2022-09-27T03:08:50.464Z,97927.16
2022-09-27T03:09:35.144Z,97915.78
2022-09-27T03:10:21.353Z,97919.78
2022-09-27T03:11:05.657Z,97915.78
2022-09-27T03:11:51.386Z,97929.09
2022-09-27T03:12:37.354Z,97916.25
2022-09-27T03:13:24.770Z,97919.09
2022-09-27T03:14:11.741Z,97916.69
2022-09-27T03:14:57.034Z,97921.81
2022-09-27T03:15:42.509Z,97920.22
2022-09-27T03:16:29.703Z,97926.81
2022-09-27T03:17:14.694Z,97923.75
2022-09-27T03:18:02.673Z,97921.69
2022-09-27T03:18:47.359Z,97918.97
2022-09-27T03:19:32.469Z,97928.75
2022-09-27T03:20:16.296Z,97926.94
2022-09-27T03:20:59.587Z,97929.44
2022-09-27T03:21:44.280Z,97929.53
2022-09-27T03:22:33.933Z,97927.97
2022-09-27T03:23:20.043Z,97924.88
2022-09-27T03:29:02.465Z,97943.53
2022-09-27T03:29:49.678Z,97932.16
2022-09-27T03:30:35.679Z,97933.31
2022-09-27T03:31:22.657Z,97934.78
2022-09-27T03:32:10.179Z,97943.19
2022-09-27T03:32:56.105Z,97932.28
2022-09-27T03:33:42.233Z,97943.19
2022-09-27T03:34:27.340Z,97922.03
2022-09-27T03:35:12.460Z,97939.09
2022-09-27T03:35:57.056Z,97936.84
2022-09-27T03:36:42.334Z,97936.03
2022-09-27T03:37:29.615Z,97939.66
2022-09-27T03:38:14.550Z,97940.00
2022-09-27T03:38:58.780Z,97943.53
2022-09-27T03:39:41.242Z,97944.34
2022-09-27T03:40:25.545Z,97937.63
2022-09-27T03:41:09.242Z,97940.00
2022-09-27T03:41:52.896Z,97946.50
2022-09-27T03:42:36.499Z,97942.28
2022-09-27T03:43:21.309Z,97942.75
2022-09-27T03:44:04.296Z,97944.00
2022-09-27T03:44:46.225Z,97943.19
2022-09-27T03:45:31.454Z,97946.72
2022-09-27T03:46:14.365Z,97946.25
2022-09-27T03:46:59.200Z,97951.03
2022-09-27T03:47:42.855Z,97945.22
2022-09-27T03:48:28.073Z,97946.25
2022-09-27T03:49:11.724Z,97951.38
2022-09-27T03:49:52.422Z,97951.38
2022-09-27T03:50:39.796Z,97946.25
2022-09-27T03:51:23.677Z,97957.53
2022-09-27T03:52:09.909Z,97942.41
2022-09-27T03:52:53.531Z,97944.00
2022-09-27T03:53:37.495Z,97949.44
2022-09-27T03:54:23.813Z,97947.84
2022-09-27T03:55:06.915Z,97954.91
2022-09-27T03:55:53.462Z,97956.84
2022-09-27T03:56:39.154Z,97947.06
2022-09-27T03:57:26.654Z,97948.53
2022-09-27T03:58:12.886Z,97950.94
2022-09-27T03:58:58.917Z,97952.19
2022-09-27T03:59:46.367Z,97957.63
2022-09-27T04:00:31.565Z,97952.53
2022-09-27T04:01:16.374Z,97953.66
2022-09-27T04:02:01.896Z,97959.91
2022-09-27T04:02:47.181Z,97951.38
2022-09-27T04:03:31.596Z,97949.00
2022-09-27T04:04:17.469Z,97961.16
2022-09-27T04:05:03.452Z,97961.50
2022-09-27T04:05:54.012Z,97956.03
2022-09-27T04:06:39.033Z,97955.25
2022-09-27T04:07:24.894Z,97960.38
2022-09-27T04:08:10.190Z,97947.16
2022-09-27T04:08:54.942Z,97956.50
2022-09-27T04:09:44.524Z,97965.03
2022-09-27T04:10:28.355Z,97958.88
2022-09-27T04:11:18.512Z,97955.34
2022-09-27T04:12:03.544Z,97956.84
2022-09-27T04:12:48.984Z,97954.22
2022-09-27T04:13:33.438Z,97957.75
2022-09-27T04:14:16.681Z,97949.44
2022-09-27T04:15:00.904Z,97956.72
2022-09-27T04:15:48.649Z,97951.72
2022-09-27T04:16:38.249Z,97951.72
2022-09-27T04:17:22.729Z,97957.97
2022-09-27T04:18:07.720Z,97959.91
2022-09-27T04:18:51.595Z,97950.59
2022-09-27T04:19:37.021Z,97959.91
2022-09-27T04:20:19.813Z,97962.63
2022-09-27T04:21:03.833Z,97954.91
2022-09-27T04:21:51.089Z,97965.81
2022-09-27T04:22:36.273Z,97959.91
2022-09-27T04:23:21.337Z,97963.09
2022-09-27T04:24:06.409Z,97961.50
2022-09-27T04:24:53.413Z,97962.97
2022-09-27T04:25:38.156Z,97968.09
2022-09-27T04:26:23.314Z,97961.28
2022-09-27T04:27:08.241Z,97963.31
2022-09-27T04:27:52.919Z,97965.25
2022-09-27T04:28:37.522Z,97959.13
2022-09-27T04:29:24.942Z,97962.06
2022-09-27T04:30:12.654Z,97968.78
2022-09-27T04:30:58.227Z,97960.25
2022-09-27T04:31:45.420Z,97964.13
2022-09-27T04:32:34.359Z,97978.22
2022-09-27T04:33:19.239Z,97975.38
2022-09-27T04:34:06.544Z,97975.72
2022-09-27T04:34:54.036Z,97986.41
2022-09-27T04:35:39.116Z,97980.59
2022-09-27T04:36:23.538Z,97983.69
2022-09-27T04:37:07.982Z,97993.00
2022-09-27T04:37:52.247Z,97986.06
2022-09-27T04:38:40.665Z,97990.94
2022-09-27T04:39:27.525Z,97992.66
2022-09-27T04:40:13.010Z,97980.50
2022-09-27T04:40:59.621Z,97988.69
2022-09-27T04:41:44.172Z,97984.13
2022-09-27T04:42:31.447Z,97990.28
2022-09-27T04:43:22.913Z,97991.88
2022-09-27T04:44:06.398Z,97990.28
2022-09-27T04:44:52.813Z,97993.34
2022-09-27T04:45:38.670Z,97990.28
2022-09-27T04:46:19.800Z,97984.81
2022-09-27T04:47:53.781Z,97985.28
2022-09-27T04:48:43.951Z,97983.78
2022-09-27T04:49:30.171Z,97991.53
2022-09-27T04:50:16.298Z,97989.03
2022-09-27T04:51:03.336Z,97990.97
2022-09-27T04:51:45.550Z,97992.53
2022-09-27T04:52:32.034Z,97993.22
2022-09-27T04:53:15.091Z,97986.63
2022-09-27T04:53:58.995Z,97995.63
2022-09-27T04:54:43.785Z,97994.47
2022-09-27T04:55:27.379Z,97989.72
2022-09-27T04:56:11.315Z,97996.06
2022-09-27T04:56:52.657Z,97994.94
2022-09-27T04:57:38.860Z,98002.44
2022-09-27T04:58:23.330Z,98003.00
2022-09-27T04:59:10.810Z,98002.66
2022-09-27T04:59:55.614Z,98000.63
2022-09-27T05:00:41.014Z,98000.75
2022-09-27T05:01:26.904Z,98006.53
2022-09-27T05:02:09.066Z,98004.25
2022-09-27T05:02:56.978Z,97994.47
2022-09-27T05:03:42.635Z,98003.81
2022-09-27T05:04:25.645Z,98005.41
2022-09-27T05:05:09.776Z,98011.66
2022-09-27T05:05:53.658Z,98011.66
2022-09-27T05:06:34.134Z,98007.91
2022-09-27T05:07:22.117Z,98008.59
2022-09-27T05:08:06.694Z,98008.13
2022-09-27T05:08:52.763Z,98005.75
2022-09-27T05:09:39.545Z,98012.78
2022-09-27T05:10:25.763Z,98010.84
2022-09-27T05:11:12.594Z,98013.59
2022-09-27T05:11:56.917Z,98017.91
2022-09-27T05:12:43.113Z,98012.44
2022-09-27T05:13:27.203Z,98016.31
2022-09-27T05:14:11.635Z,98016.31
2022-09-27T05:14:56.133Z,98018.59
2022-09-27T05:15:41.834Z,98017.44
2022-09-27T05:16:23.692Z,98018.69
2022-09-27T05:17:05.038Z,98019.03
2022-09-27T05:17:52.780Z,98017.44
2022-09-27T05:18:36.385Z,98017.91
2022-09-27T05:19:22.500Z,98023.13
2022-09-27T05:20:07.127Z,98017.22
2022-09-27T05:20:53.225Z,98024.50
2022-09-27T05:21:39.039Z,98026.88
2022-09-27T05:22:22.632Z,98024.38
2022-09-27T05:23:10.568Z,98024.94
2022-09-27T05:23:54.153Z,98027.00
2022-09-27T05:24:38.553Z,98027.78
2022-09-27T05:25:22.824Z,98030.19
2022-09-27T05:26:10.185Z,98025.88
2022-09-27T05:26:51.312Z,98029.72
2022-09-27T05:27:36.579Z,98032.91
2022-09-27T05:28:21.133Z,98030.63
2022-09-27T05:29:05.748Z,98028.94
2022-09-27T05:29:50.444Z,98030.88
2022-09-27T05:30:39.566Z,98033.16
2022-09-27T05:31:28.059Z,98029.72
2022-09-27T05:32:10.874Z,98035.66
2022-09-27T05:32:55.970Z,98032.81
2022-09-27T05:33:39.642Z,98027.34
2022-09-27T05:34:25.669Z,98032.47
2022-09-27T05:35:10.296Z,98032.81
2022-09-27T05:35:56.339Z,98031.91
2022-09-27T05:36:43.165Z,98033.16
2022-09-27T05:37:32.856Z,98033.59
2022-09-27T05:38:19.062Z,98032.69
2022-09-27T05:39:02.028Z,98031.22
2022-09-27T05:39:48.234Z,98041.34
2022-09-27T05:40:41.140Z,98036.22
2022-09-27T05:41:24.705Z,98038.94
2022-09-27T05:42:10.070Z,98035.19
2022-09-27T05:43:02.495Z,98038.38
2022-09-27T05:43:47.757Z,98042.25
2022-09-27T05:44:35.153Z,98035.41
2022-09-27T05:45:22.318Z,98044.06
2022-09-27T05:46:08.925Z,98035.88
2022-09-27T05:46:50.463Z,98038.50
2022-09-27T05:47:38.728Z,98036.91
2022-09-27T05:48:25.064Z,98039.63
2022-09-27T05:49:11.328Z,98042.13
2022-09-27T05:49:56.091Z,98038.94
2022-09-27T05:50:40.823Z,98044.50
2022-09-27T05:51:27.868Z,98039.84
2022-09-27T05:52:13.241Z,98045.19
2022-09-27T05:52:59.119Z,98048.38
2022-09-27T05:53:45.265Z,98044.97
2022-09-27T05:54:32.299Z,98046.78
2022-09-27T05:55:18.004Z,98048.25
2022-09-27T05:56:06.573Z,98048.72
2022-09-27T05:56:50.838Z,98043.72
2022-09-27T05:57:36.848Z,98043.25
2022-09-27T05:58:21.274Z,98049.84
2022-09-27T05:59:05.926Z,98056.22
2022-09-27T05:59:54.315Z,98047.59
2022-09-27T06:00:42.088Z,98054.63
2022-09-27T06:01:28.105Z,98061.22
2022-09-27T06:02:10.765Z,98057.03
2022-09-27T06:02:57.486Z,98047.25
2022-09-27T06:03:44.606Z,98053.50
2022-09-27T06:04:32.421Z,98051.44
2022-09-27T06:05:17.747Z,98053.38
2022-09-27T06:06:01.168Z,98052.69
2022-09-27T06:06:46.513Z,98058.63
2022-09-27T06:07:29.224Z,98051.56
2022-09-27T06:08:15.527Z,98053.16
2022-09-27T06:09:46.584Z,98051.78
2022-09-27T06:10:32.404Z,98048.50
2022-09-27T06:11:19.232Z,98054.75
2022-09-27T06:12:03.833Z,98059.41
2022-09-27T06:12:48.180Z,98059.97
2022-09-27T06:13:38.051Z,98053.94
2022-09-27T06:14:24.249Z,98053.16
2022-09-27T06:15:10.253Z,98056.47
2022-09-27T06:15:56.506Z,98059.75
2022-09-27T06:16:40.828Z,98049.84
2022-09-27T06:17:24.810Z,98059.63
2022-09-27T06:18:08.820Z,98063.38
2022-09-27T06:18:54.746Z,98058.28
2022-09-27T06:19:38.690Z,98061.69
2022-09-27T06:20:21.836Z,98061.69
2022-09-27T06:21:06.832Z,98064.75
2022-09-27T06:21:49.623Z,98060.78
2022-09-27T06:22:34.733Z,98069.06
2022-09-27T06:23:16.079Z,98058.84
2022-09-27T06:24:00.127Z,98066.69
2022-09-27T06:24:45.974Z,98066.34
2022-09-27T06:25:30.590Z,98072.72
2022-09-27T06:26:16.149Z,98065.22
2022-09-27T06:27:04.259Z,98070.22
2022-09-27T06:27:53.187Z,98068.63
2022-09-27T06:28:38.538Z,98058.84
2022-09-27T06:29:24.169Z,98067.84
2022-09-27T06:30:13.216Z,98071.81
2022-09-27T06:30:58.459Z,98070.56
2022-09-27T06:31:44.127Z,98068.06
2022-09-27T06:32:28.999Z,98069.53
2022-09-27T06:33:15.227Z,98068.16
2022-09-27T06:33:58.341Z,98071.34
2022-09-27T06:34:44.796Z,98067.41
2022-09-27T06:35:31.898Z,98072.75
2022-09-27T06:37:06.414Z,98069.75
2022-09-27T06:37:51.387Z,98068.50
2022-09-27T06:38:36.795Z,98063.63
2022-09-27T06:39:18.202Z,98074.19
2022-09-27T06:40:02.010Z,98068.84
2022-09-27T06:40:46.325Z,98077.94
2022-09-27T06:41:34.962Z,98069.09
2022-09-27T06:42:20.682Z,98072.75
2022-09-27T06:43:05.494Z,98073.53
2022-09-27T06:43:51.862Z,98075.25
2022-09-27T06:44:33.629Z,98078.22
2022-09-27T06:45:18.539Z,98068.75
2022-09-27T06:46:04.080Z,98079.88
2022-09-27T06:46:50.572Z,98088.06
2022-09-27T06:47:35.218Z,98078.75
2022-09-27T06:48:18.623Z,98079.09
2022-09-27T06:49:07.447Z,98072.84
2022-09-27T06:49:50.995Z,98083.41
2022-09-27T06:50:36.544Z,98073.97
2022-09-27T06:51:21.664Z,98077.84
2022-09-27T06:52:06.392Z,98082.84
2022-09-27T06:52:52.166Z,98076.59
2022-09-27T06:53:40.817Z,98085.56
2022-09-27T06:54:23.886Z,98079.09
2022-09-27T06:55:08.656Z,98074.09
2022-09-27T06:55:53.627Z,98082.63
2022-09-27T06:56:40.996Z,98068.63
2022-09-27T06:57:25.789Z,98075.91
2022-09-27T06:58:11.399Z,98077.50
2022-09-27T06:58:57.791Z,98081.94
2022-09-27T06:59:42.836Z,98079.88
2022-09-27T07:00:27.273Z,98080.69
2022-09-27T07:01:12.143Z,98084.81
2022-09-27T07:01:58.629Z,98085.00
2022-09-27T07:02:53.509Z,98086.47
2022-09-27T07:03:41.343Z,98086.47
2022-09-27T07:04:29.746Z,98079.78
2022-09-27T07:05:16.841Z,98085.00
2022-09-27T07:05:58.715Z,98092.63
2022-09-27T07:06:46.327Z,98090.00
2022-09-27T07:07:29.704Z,98091.81
2022-09-27T07:08:15.318Z,98092.97
2022-09-27T07:08:58.843Z,98097.75
2022-09-27T07:09:43.857Z,98091.81
2022-09-27T07:10:28.397Z,98090.91
2022-09-27T07:11:09.860Z,98090.56
2022-09-27T07:11:57.263Z,98093.97
2022-09-27T07:12:41.453Z,98097.50
2022-09-27T07:13:29.932Z,98097.97
2022-09-27T07:14:16.112Z,98093.63
2022-09-27T07:15:03.613Z,98099.91
2022-09-27T07:15:47.918Z,98099.09
2022-09-27T07:16:34.931Z,98099.22
2022-09-27T07:17:20.105Z,98108.53
2022-09-27T07:18:04.952Z,98103.75
2022-09-27T07:18:49.174Z,98105.34
2022-09-27T07:19:35.993Z,98112.06
2022-09-27T07:20:20.574Z,98105.81
2022-09-27T07:21:02.472Z,98111.94
2022-09-27T07:21:47.868Z,98109.22
2022-09-27T07:22:32.247Z,98113.09
2022-09-27T07:23:17.162Z,98117.75
2022-09-27T07:24:01.696Z,98121.50
2022-09-27T07:24:45.563Z,98128.91
2022-09-27T07:25:29.695Z,98125.28
2022-09-27T07:26:11.305Z,98129.69
2022-09-27T07:26:56.854Z,98123.78
2022-09-27T07:27:41.753Z,98131.97
2022-09-27T07:28:26.283Z,98123.91
2022-09-27T07:29:10.655Z,98123.66
2022-09-27T07:29:54.775Z,98127.06
2022-09-27T07:30:39.788Z,98129.13
2022-09-27T07:31:20.869Z,98129.34
2022-09-27T07:32:07.114Z,98124.13
2022-09-27T07:32:52.168Z,98126.63
2022-09-27T07:33:39.936Z,98133.34
2022-09-27T07:34:25.731Z,98137.88
2022-09-27T07:35:10.358Z,98132.75
2022-09-27T07:35:56.100Z,98139.06
2022-09-27T07:36:38.847Z,98138.47
2022-09-27T07:37:25.194Z,98136.41
2022-09-27T07:38:08.624Z,98130.94
2022-09-27T07:38:52.692Z,98135.53
2022-09-27T07:39:38.654Z,98133.78
2022-09-27T07:40:24.645Z,98135.03
2022-09-27T07:41:11.157Z,98135.84
2022-09-27T07:41:55.903Z,98137.97
2022-09-27T07:42:41.778Z,98138.09
2022-09-27T07:43:27.410Z,98143.44
2022-09-27T07:44:12.245Z,98142.31
2022-09-27T07:44:56.454Z,98139.13
2022-09-27T07:45:40.757Z,98144.59
2022-09-27T07:46:23.779Z,98137.88
2022-09-27T07:47:08.597Z,98142.44
2022-09-27T07:47:51.310Z,98143.09
2022-09-27T07:48:35.990Z,98133.31
2022-09-27T07:49:19.592Z,98152.66
2022-09-27T07:50:04.326Z,98145.25
2022-09-27T07:50:50.084Z,98151.16
2022-09-27T07:51:34.732Z,98147.31
2022-09-27T07:52:23.648Z,98153.56
2022-09-27T07:53:10.017Z,98146.16
2022-09-27T07:53:57.407Z,98150.50
2022-09-27T07:54:41.229Z,98151.28
2022-09-27T07:55:25.621Z,98148.91
2022-09-27T07:56:09.556Z,98155.28
2022-09-27T07:56:51.703Z,98161.41
2022-09-27T07:57:37.392Z,98154.69
2022-09-27T07:58:21.159Z,98155.72
2022-09-27T07:59:06.536Z,98153.69
2022-09-27T07:59:51.563Z,98149.03
2022-09-27T08:00:37.775Z,98159.03
2022-09-27T08:01:20.888Z,98150.03
2022-09-27T08:02:07.479Z,98157.66
2022-09-27T08:02:55.101Z,98156.41
2022-09-27T08:03:41.097Z,98166.19
2022-09-27T08:04:27.208Z,98162.00
2022-09-27T08:05:12.556Z,98162.78
2022-09-27T08:06:00.931Z,98161.19
2022-09-27T08:06:43.941Z,98157.22
2022-09-27T08:07:29.182Z,98160.72
2022-09-27T08:08:14.096Z,98165.28
2022-09-27T08:08:57.609Z,98164.13
2022-09-27T08:09:41.907Z,98167.88
2022-09-27T08:10:28.536Z,98164.34
2022-09-27T08:11:12.705Z,98164.34
2022-09-27T08:11:54.989Z,98164.13
2022-09-27T08:12:39.914Z,98172.31
2022-09-27T08:13:24.361Z,98165.63
2022-09-27T08:14:08.558Z,98164.03
2022-09-27T08:14:52.327Z,98173.13
2022-09-27T08:15:36.058Z,98171.66
2022-09-27T08:16:18.536Z,98170.06
2022-09-27T08:17:03.261Z,98169.59
2022-09-27T08:17:47.890Z,98166.06
2022-09-27T08:18:31.717Z,98168.00
2022-09-27T08:19:16.456Z,98166.66
2022-09-27T08:20:02.217Z,98167.66
2022-09-27T08:20:46.596Z,98167.66
2022-09-27T08:21:35.826Z,98171.91
2022-09-27T08:22:29.298Z,98177.22
2022-09-27T08:23:16.294Z,98166.19
2022-09-27T08:23:59.315Z,98174.16
2022-09-27T08:24:44.811Z,98180.50
2022-09-27T08:25:31.864Z,98173.13
2022-09-27T08:26:16.126Z,98173.13
2022-09-27T08:26:59.075Z,98175.75
2022-09-27T08:27:46.710Z,98177.13
2022-09-27T08:28:31.536Z,98181.91
2022-09-27T08:29:17.890Z,98178.03
2022-09-27T08:30:03.033Z,98173.13
2022-09-27T08:30:47.068Z,98181.91
2022-09-27T08:31:29.967Z,98181.00
2022-09-27T08:32:20.695Z,98178.16
2022-09-27T08:33:05.461Z,98179.50
2022-09-27T08:33:50.218Z,98183.91
2022-09-27T08:34:34.403Z,98182.22
2022-09-27T08:35:20.624Z,98175.63
2022-09-27T08:36:08.193Z,98177.00
2022-09-27T08:36:53.208Z,98187.25
2022-09-27T08:37:39.576Z,98185.41
2022-09-27T08:38:25.381Z,98182.69
2022-09-27T08:39:20.309Z,98179.06
2022-09-27T08:40:07.885Z,98184.28
2022-09-27T08:40:52.480Z,98194.41
2022-09-27T08:41:37.381Z,98184.63
2022-09-27T08:42:23.495Z,98187.00
2022-09-27T08:43:10.162Z,98197.69
2022-09-27T08:43:55.195Z,98195.09
2022-09-27T08:44:39.026Z,98190.09
2022-09-27T08:45:24.584Z,98189.50
2022-09-27T08:46:12.250Z,98183.50
2022-09-27T08:47:03.011Z,98185.41
2022-09-27T08:47:48.530Z,98194.88
2022-09-27T08:48:33.917Z,98187.47
2022-09-27T08:49:19.245Z,98186.22
2022-09-27T08:50:05.765Z,98190.88
2022-09-27T08:50:48.587Z,98197.59
2022-09-27T08:51:33.410Z,98192.34
2022-09-27T08:52:25.900Z,98201.34
2022-09-27T08:53:11.300Z,98199.06
2022-09-27T08:53:54.683Z,98195.53
2022-09-27T08:54:38.730Z,98197.25
2022-09-27T08:55:24.674Z,98196.47
2022-09-27T08:56:11.860Z,98198.94
2022-09-27T08:56:52.915Z,98206.00
2022-09-27T08:57:39.685Z,98199.41
2022-09-27T08:58:24.601Z,98196.09
2022-09-27T08:59:11.714Z,98202.59